Terminal Aerodrome Forecast
Issued by NWS Wichita, KS

Home | Current Version | Previous Version | Text Only | Print | Product List | Glossary Off
Versions: 1 2 3 4 5 6 7 8 9 10 11 12 13 14 15 16 17 18 19 20 21

061
FTUS43 KICT 291738
TAFICT
TAF
KICT 291738Z 2918/3018 34006KT P6SM SCT035 BKN200
     FM300100 08005KT P6SM SKC
     FM300700 08005KT P6SM VCTS SCT070CB OVC100
     FM301400 13009KT P6SM SCT100=

USA.gov is the U.S. government's official web portal to all federal, state and local government web resources and services.